createdAt,value
2017-07-05T00:01:44.264Z,9.83
2017-07-05T00:04:10.939Z,10.50
2017-07-05T00:06:37.588Z,10.30
2017-07-05T00:09:04.257Z,10.10
2017-07-05T00:11:30.976Z,11.00
2017-07-05T00:13:57.658Z,10.23
2017-07-05T00:16:24.297Z,8.33
2017-07-05T00:18:50.995Z,10.53
2017-07-05T00:21:17.655Z,9.43
2017-07-05T00:23:44.310Z,7.43
2017-07-05T00:26:11.015Z,8.53
2017-07-05T00:28:37.671Z,7.60
2017-07-05T00:31:04.312Z,8.70
2017-07-05T00:33:30.986Z,10.27
2017-07-05T00:35:57.643Z,8.43
2017-07-05T00:38:24.322Z,9.27
2017-07-05T00:40:50.992Z,9.00
2017-07-05T00:43:17.666Z,9.80
2017-07-05T00:45:44.368Z,9.07
2017-07-05T00:48:11.037Z,10.53
2017-07-05T00:50:37.683Z,9.17
2017-07-05T00:53:04.352Z,11.90
2017-07-05T00:55:31.020Z,9.30
2017-07-05T00:57:57.668Z,10.17
2017-07-05T01:00:24.339Z,9.40
2017-07-05T01:02:51.018Z,9.27
2017-07-05T01:05:17.660Z,9.30
2017-07-05T01:07:44.315Z,9.53
2017-07-05T01:10:11.004Z,10.37
2017-07-05T01:12:37.665Z,9.70
2017-07-05T01:15:04.320Z,10.37
2017-07-05T01:17:31.022Z,9.70
2017-07-05T01:19:57.683Z,10.00
2017-07-05T01:22:24.358Z,10.30
2017-07-05T01:24:51.060Z,11.13
2017-07-05T01:27:17.739Z,10.40
2017-07-05T01:29:44.384Z,11.40
2017-07-05T01:32:11.066Z,9.97
2017-07-05T01:34:37.728Z,11.67
2017-07-05T01:37:04.392Z,10.70
2017-07-05T01:39:31.067Z,10.23
2017-07-05T01:41:57.715Z,9.67
2017-07-05T01:44:24.364Z,10.50
2017-07-05T01:46:51.033Z,10.07
2017-07-05T01:49:17.689Z,10.83
2017-07-05T01:51:44.347Z,11.73
2017-07-05T01:54:11.029Z,12.47
2017-07-05T01:56:37.678Z,12.53
2017-07-05T01:59:04.328Z,11.43
2017-07-05T02:01:30.998Z,10.73
2017-07-05T02:03:57.679Z,10.53
2017-07-05T02:06:24.324Z,10.27
2017-07-05T02:08:50.989Z,11.00
2017-07-05T02:11:17.659Z,10.80
2017-07-05T02:13:44.317Z,10.63
2017-07-05T02:16:11.000Z,11.77
2017-07-05T02:18:37.675Z,10.67
2017-07-05T02:21:04.342Z,11.90
2017-07-05T02:23:31.046Z,10.70
2017-07-05T02:25:57.738Z,12.53
2017-07-05T02:28:24.385Z,11.57
2017-07-05T02:30:51.077Z,12.13
2017-07-05T02:33:17.748Z,13.20
2017-07-05T02:35:44.393Z,12.37
2017-07-05T02:38:11.095Z,14.07
2017-07-05T02:40:37.744Z,14.67
2017-07-05T02:43:04.406Z,16.33
2017-07-05T02:45:31.078Z,16.00
2017-07-05T02:47:57.747Z,15.20
2017-07-05T02:50:24.476Z,15.37
2017-07-05T02:52:51.150Z,14.90
2017-07-05T02:55:17.798Z,19.77
2017-07-05T02:57:44.442Z,21.30
2017-07-05T03:00:11.216Z,18.90
2017-07-05T03:02:37.882Z,23.60
2017-07-05T03:05:04.528Z,26.43
2017-07-05T03:07:31.217Z,26.23
2017-07-05T03:09:57.887Z,29.40
2017-07-05T03:12:24.556Z,27.57
2017-07-05T03:14:51.261Z,26.40
2017-07-05T03:17:17.936Z,25.47
2017-07-05T03:19:44.591Z,25.10
2017-07-05T03:22:11.295Z,29.53
2017-07-05T03:24:37.945Z,27.77
2017-07-05T03:27:04.604Z,30.63
2017-07-05T03:29:31.295Z,29.73
2017-07-05T03:31:57.944Z,25.40
2017-07-05T03:34:24.645Z,29.47
2017-07-05T03:36:51.328Z,25.87
2017-07-05T03:39:18.024Z,35.30
2017-07-05T03:41:44.680Z,32.20
2017-07-05T03:44:11.368Z,39.73
2017-07-05T03:46:38.034Z,34.60
2017-07-05T03:49:04.691Z,33.80
2017-07-05T03:51:31.408Z,39.53
2017-07-05T03:53:58.070Z,34.60
2017-07-05T03:56:24.755Z,36.93
2017-07-05T03:58:51.464Z,36.20
2017-07-05T04:01:18.132Z,52.17
2017-07-05T04:03:44.795Z,48.57
2017-07-05T04:06:11.457Z,41.27
2017-07-05T04:08:38.136Z,51.17
2017-07-05T04:11:04.792Z,47.57
2017-07-05T04:13:31.549Z,51.87
2017-07-05T04:15:58.204Z,52.03
2017-07-05T04:18:24.903Z,61.50
2017-07-05T04:20:51.582Z,52.93
2017-07-05T04:23:18.232Z,57.43
2017-07-05T04:25:44.909Z,56.30
2017-07-05T04:28:11.597Z,57.57
2017-07-05T04:30:38.247Z,61.40
2017-07-05T04:33:04.927Z,59.73
2017-07-05T04:35:31.601Z,58.27
2017-07-05T04:37:58.247Z,58.03
2017-07-05T04:40:24.901Z,54.47
2017-07-05T04:42:51.576Z,49.80
2017-07-05T04:45:18.232Z,47.60
2017-07-05T04:47:44.891Z,45.20
2017-07-05T04:50:11.558Z,46.13
2017-07-05T04:52:38.234Z,45.30
2017-07-05T04:55:04.896Z,44.33
2017-07-05T04:57:31.587Z,41.03
2017-07-05T04:59:58.278Z,44.67
2017-07-05T05:02:24.928Z,41.67
2017-07-05T05:04:51.576Z,43.90
2017-07-05T05:07:18.270Z,39.77
2017-07-05T05:09:44.936Z,40.00
2017-07-05T05:12:11.587Z,39.73
2017-07-05T05:14:38.253Z,38.30
2017-07-05T05:17:04.923Z,37.20
2017-07-05T05:19:31.604Z,35.93
2017-07-05T05:21:58.301Z,35.50
2017-07-05T05:24:24.986Z,33.97
2017-07-05T05:26:51.640Z,33.73
2017-07-05T05:29:18.288Z,33.90
2017-07-05T05:31:45.004Z,31.30
2017-07-05T05:34:11.683Z,31.40
2017-07-05T05:36:38.373Z,30.00
2017-07-05T05:39:05.019Z,30.53
2017-07-05T05:41:31.685Z,28.37
2017-07-05T05:43:58.379Z,28.80
2017-07-05T05:46:25.033Z,27.97
2017-07-05T05:48:51.676Z,28.83
2017-07-05T05:51:18.399Z,27.10
2017-07-05T05:53:45.081Z,27.70
2017-07-05T05:56:11.770Z,24.50
2017-07-05T05:58:38.435Z,22.53
2017-07-05T06:01:05.107Z,23.83
2017-07-05T06:03:31.820Z,23.53
2017-07-05T06:05:58.472Z,23.53
2017-07-05T06:08:25.119Z,22.30
2017-07-05T06:10:51.870Z,24.00
2017-07-05T06:13:18.556Z,22.73
2017-07-05T06:15:45.234Z,22.77
2017-07-05T06:18:11.879Z,23.07
2017-07-05T06:20:38.530Z,21.70
2017-07-05T06:23:05.192Z,22.17
2017-07-05T06:25:31.854Z,21.80
2017-07-05T06:27:58.522Z,21.37
2017-07-05T06:30:25.205Z,19.83
2017-07-05T06:32:51.908Z,20.10
2017-07-05T06:35:18.560Z,19.67
2017-07-05T06:37:45.224Z,18.93
2017-07-05T06:40:11.922Z,19.33
2017-07-05T06:42:38.574Z,19.10
2017-07-05T06:45:05.268Z,17.00
2017-07-05T06:47:31.966Z,19.33
2017-07-05T06:49:58.619Z,18.57
2017-07-05T06:52:25.270Z,18.70
2017-07-05T06:54:51.983Z,19.40
2017-07-05T06:57:18.687Z,17.60
2017-07-05T06:59:45.362Z,17.00
2017-07-05T07:02:12.444Z,17.37
2017-07-05T07:04:39.099Z,17.83
2017-07-05T07:07:05.761Z,18.40
2017-07-05T07:09:32.439Z,18.20
2017-07-05T07:11:59.110Z,20.73
2017-07-05T07:14:25.772Z,23.90
2017-07-05T07:16:52.461Z,22.33
2017-07-05T07:19:19.154Z,20.80
2017-07-05T07:21:45.828Z,24.83
2017-07-05T07:24:12.519Z,22.27
2017-07-05T07:26:39.173Z,19.57
2017-07-05T07:29:05.838Z,20.17
2017-07-05T07:31:32.525Z,18.40
2017-07-05T07:33:59.186Z,18.50
2017-07-05T07:36:25.865Z,19.37
2017-07-05T07:38:52.551Z,17.40
2017-07-05T07:41:19.226Z,18.30
2017-07-05T07:43:45.884Z,17.33
2017-07-05T07:46:12.565Z,19.83
2017-07-05T07:48:39.225Z,17.90
2017-07-05T07:51:05.868Z,17.10
2017-07-05T07:53:32.556Z,17.40
2017-07-05T07:55:59.205Z,18.90
2017-07-05T07:58:25.876Z,20.67
2017-07-05T08:00:52.570Z,23.70
2017-07-05T08:03:19.222Z,21.40
2017-07-05T08:05:45.887Z,24.63
2017-07-05T08:08:12.570Z,21.10
2017-07-05T08:10:39.228Z,19.70
2017-07-05T08:13:05.891Z,18.90
2017-07-05T08:15:32.579Z,22.60
2017-07-05T08:17:59.245Z,24.27
2017-07-05T08:20:25.918Z,19.90
2017-07-05T08:22:52.560Z,20.33
2017-07-05T08:25:19.243Z,21.33
2017-07-05T08:27:45.888Z,22.90
2017-07-05T08:30:12.536Z,23.80
2017-07-05T08:32:39.233Z,21.17
2017-07-05T08:35:05.891Z,22.50
2017-07-05T08:37:32.540Z,21.87
2017-07-05T08:39:59.214Z,19.77
2017-07-05T08:42:25.887Z,16.87
2017-07-05T08:44:52.551Z,14.93
2017-07-05T08:47:19.244Z,16.77
2017-07-05T08:49:45.896Z,18.30
2017-07-05T08:52:12.544Z,19.93
2017-07-05T08:54:39.248Z,14.23
2017-07-05T08:57:05.893Z,14.37
2017-07-05T08:59:32.544Z,11.57
2017-07-05T09:01:59.213Z,11.50
2017-07-05T09:04:25.893Z,15.07
2017-07-05T09:06:52.555Z,13.70
2017-07-05T09:09:19.255Z,15.57
2017-07-05T09:11:45.919Z,14.17
2017-07-05T09:14:12.572Z,16.10
2017-07-05T09:16:39.252Z,16.93
2017-07-05T09:19:05.912Z,16.40
2017-07-05T09:21:32.575Z,16.53
2017-07-05T09:23:59.251Z,17.23
2017-07-05T09:26:25.906Z,14.13
2017-07-05T09:28:52.567Z,12.50
2017-07-05T09:31:19.273Z,8.07
2017-07-05T09:33:45.990Z,8.50
2017-07-05T09:36:12.648Z,8.87
2017-07-05T09:38:39.359Z,12.33
2017-07-05T09:41:06.004Z,11.07
2017-07-05T09:43:32.670Z,12.77
2017-07-05T09:45:59.351Z,12.27
2017-07-05T09:48:26.004Z,12.60
2017-07-05T09:50:52.670Z,14.43
2017-07-05T09:53:19.374Z,12.57
2017-07-05T09:55:46.047Z,13.20
2017-07-05T09:58:12.692Z,8.53
2017-07-05T10:00:39.371Z,8.73
2017-07-05T10:03:06.043Z,9.33
2017-07-05T10:05:32.696Z,7.40
2017-07-05T10:07:59.391Z,9.07
2017-07-05T10:10:26.046Z,10.10
2017-07-05T10:12:52.739Z,10.40
2017-07-05T10:15:19.399Z,9.20
2017-07-05T10:17:46.041Z,8.20
2017-07-05T10:20:12.686Z,8.20
2017-07-05T10:22:39.407Z,8.50
2017-07-05T10:25:06.059Z,8.70
2017-07-05T10:27:32.716Z,7.57
2017-07-05T10:29:59.404Z,6.40
2017-07-05T10:32:26.043Z,5.80
2017-07-05T10:34:52.688Z,6.50
2017-07-05T10:37:19.373Z,5.77
2017-07-05T10:39:46.022Z,6.97
2017-07-05T10:42:12.668Z,6.63
2017-07-05T10:44:39.371Z,6.97
2017-07-05T10:47:06.012Z,5.77
2017-07-05T10:49:32.666Z,6.90
2017-07-05T10:51:59.363Z,6.20
2017-07-05T10:54:26.031Z,7.10
2017-07-05T10:56:52.694Z,6.97
2017-07-05T10:59:19.384Z,7.27
2017-07-05T11:01:46.060Z,7.13
2017-07-05T11:04:12.761Z,7.13
2017-07-05T11:06:39.424Z,6.00
2017-07-05T11:09:06.063Z,5.70
2017-07-05T11:11:32.719Z,6.60
2017-07-05T11:13:59.396Z,7.90
2017-07-05T11:16:26.056Z,9.63
2017-07-05T11:18:52.731Z,8.30
2017-07-05T11:21:19.393Z,7.20
2017-07-05T11:23:46.035Z,7.70
2017-07-05T11:26:12.699Z,7.10
2017-07-05T11:28:39.356Z,6.40
2017-07-05T11:31:05.988Z,6.13
2017-07-05T11:33:32.647Z,7.27
2017-07-05T11:35:59.334Z,6.73
2017-07-05T11:38:25.991Z,6.03
2017-07-05T11:40:52.663Z,6.00
2017-07-05T11:43:19.332Z,6.30
2017-07-05T11:45:46.031Z,7.50
2017-07-05T11:48:12.695Z,7.63
2017-07-05T11:50:39.399Z,6.10
2017-07-05T11:53:06.035Z,6.50
2017-07-05T11:55:32.702Z,7.00
2017-07-05T11:57:59.372Z,6.40
2017-07-05T12:00:26.030Z,7.50
2017-07-05T12:02:52.709Z,6.23
2017-07-05T12:05:19.336Z,8.50
2017-07-05T12:07:45.965Z,7.30
2017-07-05T12:10:13.465Z,6.80
2017-07-05T12:12:40.179Z,5.80
2017-07-05T12:15:06.820Z,5.10
2017-07-05T12:17:33.480Z,6.43
2017-07-05T12:20:00.168Z,7.00
2017-07-05T12:22:26.807Z,6.00
2017-07-05T12:24:53.467Z,5.60
2017-07-05T12:27:20.148Z,6.30
2017-07-05T12:29:46.796Z,6.67
2017-07-05T12:32:13.432Z,6.20
2017-07-05T12:34:40.098Z,7.40
2017-07-05T12:37:06.759Z,6.70
2017-07-05T12:39:33.391Z,6.67
2017-07-05T12:42:00.067Z,6.23
2017-07-05T12:44:26.724Z,7.23
2017-07-05T12:46:53.395Z,8.10
2017-07-05T12:49:20.098Z,6.80
2017-07-05T12:51:46.754Z,5.70
2017-07-05T12:54:13.393Z,5.90
2017-07-05T12:56:40.057Z,5.50
2017-07-05T12:59:06.707Z,5.80
2017-07-05T13:01:33.362Z,7.10
2017-07-05T13:04:00.050Z,5.63
2017-07-05T13:06:26.703Z,7.33
2017-07-05T13:08:53.353Z,7.60
2017-07-05T13:11:20.095Z,7.87
2017-07-05T13:13:46.759Z,7.17
2017-07-05T13:16:13.399Z,6.17
2017-07-05T13:18:40.067Z,4.80
2017-07-05T13:21:06.707Z,9.10
2017-07-05T13:23:33.364Z,5.87
2017-07-05T13:26:00.076Z,5.33
2017-07-05T13:28:26.735Z,4.50
2017-07-05T13:30:53.384Z,5.80
2017-07-05T13:33:20.052Z,6.00
2017-07-05T13:35:46.698Z,7.40
2017-07-05T13:38:13.336Z,5.53
2017-07-05T13:40:40.047Z,5.50
2017-07-05T13:43:06.685Z,6.87
2017-07-05T13:45:33.334Z,6.00
2017-07-05T13:48:00.079Z,5.80
2017-07-05T13:50:26.730Z,4.90
2017-07-05T13:52:53.370Z,4.33
2017-07-05T13:55:20.034Z,4.97
2017-07-05T13:57:46.673Z,4.50
2017-07-05T14:00:13.310Z,5.90
2017-07-05T14:02:40.055Z,5.60
2017-07-05T14:05:06.739Z,5.60
2017-07-05T14:07:33.399Z,4.70
2017-07-05T14:10:00.070Z,4.97
2017-07-05T14:12:26.727Z,4.23
2017-07-05T14:14:53.363Z,4.90
2017-07-05T14:17:20.058Z,4.87
2017-07-05T14:19:46.694Z,4.40
2017-07-05T14:22:13.400Z,4.47
2017-07-05T14:24:40.099Z,4.00
2017-07-05T14:27:06.736Z,4.10
2017-07-05T14:29:33.380Z,4.10
2017-07-05T14:32:00.066Z,3.90
2017-07-05T14:34:26.724Z,4.10
2017-07-05T14:36:53.360Z,4.83
2017-07-05T14:39:20.054Z,4.30
2017-07-05T14:41:46.720Z,3.93
2017-07-05T14:44:13.381Z,3.77
2017-07-05T14:46:40.056Z,3.80
2017-07-05T14:49:06.708Z,5.00
2017-07-05T14:51:33.348Z,4.13
2017-07-05T14:54:00.039Z,4.87
2017-07-05T14:56:26.740Z,5.33
2017-07-05T14:58:54.298Z,5.47
2017-07-05T15:01:21.037Z,5.10
2017-07-05T15:03:47.725Z,4.17
2017-07-05T15:06:14.444Z,4.80
2017-07-05T15:08:41.198Z,4.23
2017-07-05T15:11:07.868Z,4.90
2017-07-05T15:13:34.587Z,5.63
2017-07-05T15:16:01.339Z,5.60
2017-07-05T15:18:28.020Z,6.07
2017-07-05T15:20:54.675Z,5.43
2017-07-05T15:23:21.343Z,7.00
2017-07-05T15:25:47.998Z,5.13
2017-07-05T15:28:14.660Z,5.33
2017-07-05T15:30:41.377Z,7.13
2017-07-05T15:33:08.040Z,5.80
2017-07-05T15:35:34.702Z,5.07
2017-07-05T15:38:01.378Z,5.50
2017-07-05T15:40:28.035Z,5.97
2017-07-05T15:42:54.692Z,4.50
2017-07-05T15:45:21.406Z,4.77
2017-07-05T15:47:48.053Z,4.97
2017-07-05T15:50:14.711Z,3.90
2017-07-05T15:52:41.416Z,4.10
2017-07-05T15:55:08.093Z,4.53
2017-07-05T15:57:34.745Z,4.73
2017-07-05T16:00:01.423Z,4.57
2017-07-05T16:02:28.095Z,4.50
2017-07-05T16:04:54.789Z,4.97
2017-07-05T16:07:21.442Z,4.20
2017-07-05T16:09:48.150Z,4.37
2017-07-05T16:12:14.838Z,4.20
2017-07-05T16:14:41.538Z,4.87
2017-07-05T16:17:08.185Z,3.70
2017-07-05T16:19:34.835Z,4.10
2017-07-05T16:22:01.494Z,4.17
2017-07-05T16:24:28.137Z,4.07
2017-07-05T16:26:54.797Z,4.43
2017-07-05T16:29:21.494Z,3.77
2017-07-05T16:31:48.132Z,4.00
2017-07-05T16:34:14.760Z,4.90
2017-07-05T16:36:41.413Z,4.33
2017-07-05T16:39:08.079Z,4.10
2017-07-05T16:41:34.743Z,3.83
2017-07-05T16:44:01.433Z,4.50
2017-07-05T16:46:28.087Z,3.87
2017-07-05T16:48:54.730Z,3.80
2017-07-05T16:51:21.428Z,3.83
2017-07-05T16:53:48.087Z,3.83
2017-07-05T16:56:14.759Z,3.67
2017-07-05T16:58:41.481Z,4.90
2017-07-05T17:01:08.131Z,4.47
2017-07-05T17:03:34.859Z,4.50
2017-07-05T17:06:01.515Z,5.70
2017-07-05T17:08:28.163Z,5.37
2017-07-05T17:10:54.852Z,6.03
2017-07-05T17:13:21.489Z,6.33
2017-07-05T17:15:48.131Z,5.30
2017-07-05T17:18:14.792Z,6.57
2017-07-05T17:20:41.458Z,6.17
2017-07-05T17:23:08.117Z,6.13
2017-07-05T17:25:34.874Z,6.33
2017-07-05T17:28:01.527Z,5.90
2017-07-05T17:30:28.196Z,6.37
2017-07-05T17:32:55.039Z,6.30
2017-07-05T17:35:21.702Z,6.67
2017-07-05T17:37:48.368Z,5.80
2017-07-05T17:40:15.122Z,6.80
2017-07-05T17:42:41.788Z,6.30
2017-07-05T17:45:08.455Z,5.53
2017-07-05T17:47:35.175Z,5.27
2017-07-05T17:50:01.823Z,5.00
2017-07-05T17:52:28.471Z,6.10
2017-07-05T17:54:55.180Z,5.50
2017-07-05T17:57:22.601Z,7.23
2017-07-05T17:59:49.250Z,5.70
2017-07-05T18:02:15.930Z,4.93
2017-07-05T18:04:42.623Z,7.57
2017-07-05T18:07:09.265Z,5.70
2017-07-05T18:09:35.904Z,5.67
2017-07-05T18:12:02.568Z,5.90
2017-07-05T18:14:29.209Z,6.50
2017-07-05T18:16:55.905Z,5.23
2017-07-05T18:19:22.567Z,5.30
2017-07-05T18:21:49.280Z,9.20
2017-07-05T18:24:15.928Z,6.20
2017-07-05T18:26:42.563Z,5.33
2017-07-05T18:29:09.241Z,4.77
2017-07-05T18:31:35.880Z,4.97
2017-07-05T18:34:02.536Z,4.60
2017-07-05T18:36:29.213Z,4.33
2017-07-05T18:38:55.872Z,5.37
2017-07-05T18:41:22.578Z,5.03
2017-07-05T18:43:49.227Z,5.00
2017-07-05T18:46:15.874Z,5.20
2017-07-05T18:48:42.555Z,5.53
2017-07-05T18:51:09.212Z,5.67
2017-07-05T18:53:35.849Z,5.60
2017-07-05T18:56:02.554Z,5.40
2017-07-05T18:58:29.211Z,4.57
2017-07-05T19:00:55.902Z,4.87
2017-07-05T19:03:22.643Z,5.07
2017-07-05T19:05:49.300Z,5.20
2017-07-05T19:08:15.958Z,9.10
2017-07-05T19:10:42.655Z,4.90
2017-07-05T19:13:09.316Z,5.53
2017-07-05T19:15:35.956Z,4.83
2017-07-05T19:18:02.631Z,4.97
2017-07-05T19:20:29.275Z,15.33
2017-07-05T19:22:55.911Z,4.90
2017-07-05T19:25:22.595Z,4.53
2017-07-05T19:27:49.232Z,4.70
2017-07-05T19:30:15.907Z,5.63
2017-07-05T19:32:42.545Z,4.87
2017-07-05T19:35:09.211Z,21.10
2017-07-05T19:37:35.930Z,9.80
2017-07-05T19:40:02.604Z,12.80
2017-07-05T19:42:29.266Z,12.50
2017-07-05T19:44:55.945Z,9.73
2017-07-05T19:47:22.607Z,4.90
2017-07-05T19:49:49.250Z,5.20
2017-07-05T19:52:15.922Z,4.47
2017-07-05T19:54:42.588Z,4.47
2017-07-05T19:57:09.290Z,5.23
2017-07-05T19:59:35.933Z,4.70
2017-07-05T20:02:02.598Z,4.63
2017-07-05T20:04:29.267Z,5.63
2017-07-05T20:06:55.904Z,5.80
2017-07-05T20:09:22.578Z,3.97
2017-07-05T20:11:49.231Z,3.87
2017-07-05T20:14:15.892Z,8.57
2017-07-05T20:16:42.547Z,7.67
2017-07-05T20:19:09.208Z,7.40
2017-07-05T20:21:35.901Z,3.90
2017-07-05T20:24:02.563Z,4.17
2017-07-05T20:26:29.198Z,4.97
2017-07-05T20:28:55.903Z,10.57
2017-07-05T20:31:23.031Z,5.13
2017-07-05T20:33:49.690Z,4.50
2017-07-05T20:36:16.372Z,5.60
2017-07-05T20:38:43.042Z,10.00
2017-07-05T20:41:09.691Z,10.20
2017-07-05T20:43:36.360Z,10.57
2017-07-05T20:46:03.026Z,10.37
2017-07-05T20:48:29.698Z,55.00
2017-07-05T20:50:56.399Z,6.67
2017-07-05T20:53:23.037Z,4.60
2017-07-05T20:55:49.676Z,5.83
2017-07-05T20:58:16.377Z,10.20
2017-07-05T21:00:43.059Z,4.43
2017-07-05T21:03:09.729Z,4.90
2017-07-05T21:05:36.395Z,4.40
2017-07-05T21:08:03.036Z,5.73
2017-07-05T21:10:29.747Z,6.90
2017-07-05T21:12:56.406Z,6.07
2017-07-05T21:15:23.093Z,3.77
2017-07-05T21:17:49.790Z,3.50
2017-07-05T21:20:16.436Z,6.73
2017-07-05T21:22:43.086Z,4.07
2017-07-05T21:25:09.749Z,5.10
2017-07-05T21:27:36.409Z,8.13
2017-07-05T21:30:03.071Z,3.20
2017-07-05T21:32:29.764Z,3.13
2017-07-05T21:34:56.411Z,5.40
2017-07-05T21:37:23.066Z,3.60
2017-07-05T21:39:49.745Z,11.23
2017-07-05T21:42:16.389Z,3.40
2017-07-05T21:44:43.046Z,3.80
2017-07-05T21:47:09.743Z,5.53
2017-07-05T21:49:36.394Z,4.00
2017-07-05T21:52:03.036Z,5.30
2017-07-05T21:54:29.753Z,17.43
2017-07-05T21:56:56.397Z,9.73
2017-07-05T21:59:23.104Z,14.83
2017-07-05T22:01:49.757Z,3.50
2017-07-05T22:04:16.981Z,3.37
2017-07-05T22:06:43.684Z,3.00
2017-07-05T22:09:10.343Z,3.10
2017-07-05T22:11:36.994Z,2.87
2017-07-05T22:14:03.706Z,3.27
2017-07-05T22:16:30.343Z,3.13
2017-07-05T22:18:56.991Z,3.43
2017-07-05T22:21:23.680Z,2.70
2017-07-05T22:23:50.341Z,2.73
2017-07-05T22:26:17.000Z,2.73
2017-07-05T22:28:43.665Z,2.57
2017-07-05T22:31:10.307Z,2.83
2017-07-05T22:33:36.955Z,2.60
2017-07-05T22:36:03.655Z,2.97
2017-07-05T22:38:30.302Z,3.07
2017-07-05T22:40:56.936Z,2.60
2017-07-05T22:43:23.604Z,2.73
2017-07-05T22:45:50.263Z,2.97
2017-07-05T22:48:16.896Z,2.63
2017-07-05T22:50:43.593Z,2.60
2017-07-05T22:53:10.274Z,2.97
2017-07-05T22:55:36.919Z,3.23
2017-07-05T22:58:03.635Z,2.60
2017-07-05T23:00:30.308Z,3.17
2017-07-05T23:02:57.017Z,2.57
2017-07-05T23:05:23.716Z,3.00
2017-07-05T23:07:50.391Z,2.90
2017-07-05T23:10:17.043Z,2.80
2017-07-05T23:12:43.724Z,3.03
2017-07-05T23:15:10.368Z,2.80
2017-07-05T23:17:37.008Z,2.83
2017-07-05T23:20:03.718Z,3.57
2017-07-05T23:22:30.359Z,2.70
2017-07-05T23:24:57.011Z,2.90
2017-07-05T23:27:23.688Z,3.03
2017-07-05T23:29:50.349Z,3.20
2017-07-05T23:32:17.001Z,3.10
2017-07-05T23:34:43.707Z,2.70
2017-07-05T23:37:10.379Z,2.70
2017-07-05T23:39:37.016Z,3.27
2017-07-05T23:42:03.651Z,3.40
2017-07-05T23:44:30.336Z,3.03
2017-07-05T23:46:56.999Z,2.93
2017-07-05T23:49:23.638Z,2.87
2017-07-05T23:51:50.298Z,3.20
2017-07-05T23:54:16.976Z,3.40
2017-07-05T23:56:43.654Z,3.27
2017-07-05T23:59:10.348Z,3.20
